aviador You're here:

CYQZ Decoded Metar

QUESNEL in BC, CANADA
Report Time2017-08-24 02:00:00
UTC Time2017-08-24 03:08:21
Flight Rules Old
Wind150° at 09 kt
W.Decomp.*RWY 13: 9.0 kt HW -0 kt LCW
W.Rank150° ranks 1
Current wind is above 150° avg. (7.2)
Visibility9999 m
Phenomena:N/A
Clouds:Broken 110 Hf
Broken 130 Hf
Expected CloudBase > 2,400 ft AGL from Temp-Dew spread
Ceiling11,000 ft
Temp19°C (ISA +8)
Dew Point13°C (68% RH)
AAT16.7°C
QNH1008 hPa
Density Alt3,045 ft
Elevation1,788 ft
Report Wrong Elevation
Raw Report
CYQZ 240200Z AUTO 15009KT 9SM BKN110 BKN130 19/13 A2977 RMK SLP087
DENSITY ALT 2700FT=

Extra information for CYQZ:More info

Metar Taf Metar & Taf Last 4 Metars F.Rules Stats Wind Profile Meteogram Temp Stats Airport Information Weather charts Add Link Nearby VenuesMetar ALERT Operation Metar Decoded Social comments